sensor_id;sensor_type;location;lat;lon;timestamp;pressure;altitude;pressure_sealevel;temperature;humidity
54872;BME280;43914;57.680;11.982;2023-06-10T00:01:16;101660.20;;;14.10;37.81
54872;BME280;43914;57.680;11.982;2023-06-10T00:03:41;101662.91;;;14.07;37.98
54872;BME280;43914;57.680;11.982;2023-06-10T00:06:08;101658.94;;;14.01;37.98
54872;BME280;43914;57.680;11.982;2023-06-10T00:08:34;101660.89;;;13.97;37.96
54872;BME280;43914;57.680;11.982;2023-06-10T00:10:59;101662.65;;;13.93;38.01
54872;BME280;43914;57.680;11.982;2023-06-10T00:13:25;101664.31;;;13.88;37.96
54872;BME280;43914;57.680;11.982;2023-06-10T00:15:51;101666.85;;;13.83;37.80
54872;BME280;43914;57.680;11.982;2023-06-10T00:18:17;101673.31;;;13.79;37.86
54872;BME280;43914;57.680;11.982;2023-06-10T00:20:43;101676.75;;;13.76;37.97
54872;BME280;43914;57.680;11.982;2023-06-10T00:23:08;101679.02;;;13.72;38.05
54872;BME280;43914;57.680;11.982;2023-06-10T00:25:35;101676.30;;;13.66;38.02
54872;BME280;43914;57.680;11.982;2023-06-10T00:28:00;101676.08;;;13.62;37.85
54872;BME280;43914;57.680;11.982;2023-06-10T00:30:27;101676.51;;;13.58;37.75
54872;BME280;43914;57.680;11.982;2023-06-10T00:32:52;101675.37;;;13.55;37.80
54872;BME280;43914;57.680;11.982;2023-06-10T00:35:18;101673.70;;;13.52;37.59
54872;BME280;43914;57.680;11.982;2023-06-10T00:37:43;101675.52;;;13.49;37.46
54872;BME280;43914;57.680;11.982;2023-06-10T00:40:09;101674.41;;;13.43;37.47
54872;BME280;43914;57.680;11.982;2023-06-10T00:42:35;101677.92;;;13.41;37.46
54872;BME280;43914;57.680;11.982;2023-06-10T00:45:01;101682.02;;;13.38;37.39
54872;BME280;43914;57.680;11.982;2023-06-10T00:47:27;101681.28;;;13.34;37.41
54872;BME280;43914;57.680;11.982;2023-06-10T00:49:53;101680.32;;;13.31;37.42
54872;BME280;43914;57.680;11.982;2023-06-10T00:52:21;101681.31;;;13.27;37.43
54872;BME280;43914;57.680;11.982;2023-06-10T00:54:48;101683.70;;;13.22;37.50
54872;BME280;43914;57.680;11.982;2023-06-10T00:57:17;101688.32;;;13.17;37.56
54872;BME280;43914;57.680;11.982;2023-06-10T00:59:47;101691.92;;;13.14;37.36
54872;BME280;43914;57.680;11.982;2023-06-10T01:02:13;101696.48;;;13.11;37.34
54872;BME280;43914;57.680;11.982;2023-06-10T01:04:38;101699.80;;;13.07;37.30
54872;BME280;43914;57.680;11.982;2023-06-10T01:07:34;101698.48;;;13.04;37.48
54872;BME280;43914;57.680;11.982;2023-06-10T01:10:32;101699.17;;;12.98;37.49
54872;BME280;43914;57.680;11.982;2023-06-10T01:12:59;101697.74;;;12.92;37.46
54872;BME280;43914;57.680;11.982;2023-06-10T01:15:29;101697.70;;;12.88;37.44
54872;BME280;43914;57.680;11.982;2023-06-10T01:18:07;101703.95;;;12.85;37.45
54872;BME280;43914;57.680;11.982;2023-06-10T01:20:41;101702.02;;;12.79;37.62
54872;BME280;43914;57.680;11.982;2023-06-10T01:23:10;101704.80;;;12.76;37.56
54872;BME280;43914;57.680;11.982;2023-06-10T01:25:56;101704.71;;;12.73;37.76
54872;BME280;43914;57.680;11.982;2023-06-10T01:28:36;101705.52;;;12.69;37.73
54872;BME280;43914;57.680;11.982;2023-06-10T01:34:07;101711.38;;;12.61;37.99
54872;BME280;43914;57.680;11.982;2023-06-10T01:36:34;101713.66;;;12.59;38.25
54872;BME280;43914;57.680;11.982;2023-06-10T01:39:04;101712.50;;;12.55;38.22
54872;BME280;43914;57.680;11.982;2023-06-10T01:41:30;101719.23;;;12.52;38.28
54872;BME280;43914;57.680;11.982;2023-06-10T01:43:56;101722.83;;;12.49;38.37
54872;BME280;43914;57.680;11.982;2023-06-10T01:46:22;101719.94;;;12.46;38.30
54872;BME280;43914;57.680;11.982;2023-06-10T01:48:48;101722.61;;;12.43;38.33
54872;BME280;43914;57.680;11.982;2023-06-10T01:51:13;101722.73;;;12.39;38.05
54872;BME280;43914;57.680;11.982;2023-06-10T01:53:39;101725.19;;;12.38;37.78
54872;BME280;43914;57.680;11.982;2023-06-10T01:56:05;101727.96;;;12.35;37.73
54872;BME280;43914;57.680;11.982;2023-06-10T01:58:31;101729.92;;;12.32;37.88
54872;BME280;43914;57.680;11.982;2023-06-10T02:00:56;101728.33;;;12.29;37.98
54872;BME280;43914;57.680;11.982;2023-06-10T02:03:22;101731.40;;;12.25;37.98
54872;BME280;43914;57.680;11.982;2023-06-10T02:05:49;101733.70;;;12.24;38.11
54872;BME280;43914;57.680;11.982;2023-06-10T02:08:16;101736.64;;;12.22;38.11
54872;BME280;43914;57.680;11.982;2023-06-10T02:10:41;101733.88;;;12.19;38.18
54872;BME280;43914;57.680;11.982;2023-06-10T02:13:07;101739.33;;;12.16;38.36
54872;BME280;43914;57.680;11.982;2023-06-10T02:15:32;101744.02;;;12.12;38.48
54872;BME280;43914;57.680;11.982;2023-06-10T02:17:59;101745.64;;;12.08;38.61
54872;BME280;43914;57.680;11.982;2023-06-10T02:20:25;101743.66;;;12.04;38.64
54872;BME280;43914;57.680;11.982;2023-06-10T02:22:51;101743.63;;;12.02;38.58
54872;BME280;43914;57.680;11.982;2023-06-10T02:25:17;101749.27;;;12.02;38.82
54872;BME280;43914;57.680;11.982;2023-06-10T02:27:42;101746.29;;;11.97;38.94
54872;BME280;43914;57.680;11.982;2023-06-10T02:30:08;101746.31;;;11.94;39.15
54872;BME280;43914;57.680;11.982;2023-06-10T02:32:36;101746.49;;;11.89;39.31
54872;BME280;43914;57.680;11.982;2023-06-10T02:35:02;101744.91;;;11.85;39.32
54872;BME280;43914;57.680;11.982;2023-06-10T02:37:28;101744.73;;;11.82;39.40
54872;BME280;43914;57.680;11.982;2023-06-10T02:39:54;101751.64;;;11.78;39.43
54872;BME280;43914;57.680;11.982;2023-06-10T02:42:19;101751.58;;;11.74;39.57
54872;BME280;43914;57.680;11.982;2023-06-10T02:44:45;101756.72;;;11.69;39.77
54872;BME280;43914;57.680;11.982;2023-06-10T02:47:10;101759.20;;;11.66;39.95
54872;BME280;43914;57.680;11.982;2023-06-10T02:49:36;101759.92;;;11.63;40.24
54872;BME280;43914;57.680;11.982;2023-06-10T02:52:02;101754.09;;;11.60;40.25
54872;BME280;43914;57.680;11.982;2023-06-10T02:54:28;101756.60;;;11.58;40.55
54872;BME280;43914;57.680;11.982;2023-06-10T02:56:53;101756.49;;;11.56;40.54
54872;BME280;43914;57.680;11.982;2023-06-10T02:59:21;101759.27;;;11.53;40.73
54872;BME280;43914;57.680;11.982;2023-06-10T03:01:47;101758.37;;;11.52;40.84
54872;BME280;43914;57.680;11.982;2023-06-10T03:04:13;101759.41;;;11.50;41.09
54872;BME280;43914;57.680;11.982;2023-06-10T03:06:40;101760.66;;;11.49;41.21
54872;BME280;43914;57.680;11.982;2023-06-10T03:09:10;101760.82;;;11.47;41.21
54872;BME280;43914;57.680;11.982;2023-06-10T03:11:36;101760.89;;;11.47;41.36
54872;BME280;43914;57.680;11.982;2023-06-10T03:14:02;101760.32;;;11.44;41.35
54872;BME280;43914;57.680;11.982;2023-06-10T03:16:27;101761.48;;;11.43;41.40
54872;BME280;43914;57.680;11.982;2023-06-10T03:18:55;101760.81;;;11.41;41.54
54872;BME280;43914;57.680;11.982;2023-06-10T03:21:21;101762.46;;;11.40;41.66
54872;BME280;43914;57.680;11.982;2023-06-10T03:23:46;101762.92;;;11.39;41.99
54872;BME280;43914;57.680;11.982;2023-06-10T03:26:14;101766.50;;;11.40;42.09
54872;BME280;43914;57.680;11.982;2023-06-10T03:28:41;101763.12;;;11.39;42.46
54872;BME280;43914;57.680;11.982;2023-06-10T03:31:07;101770.16;;;11.39;42.62
54872;BME280;43914;57.680;11.982;2023-06-10T03:33:32;101767.56;;;11.38;42.76
54872;BME280;43914;57.680;11.982;2023-06-10T03:35:58;101772.33;;;11.37;43.05
54872;BME280;43914;57.680;11.982;2023-06-10T03:38:24;101772.05;;;11.34;43.10
54872;BME280;43914;57.680;11.982;2023-06-10T03:40:50;101772.93;;;11.33;43.42
54872;BME280;43914;57.680;11.982;2023-06-10T03:43:16;101774.88;;;11.32;43.59
54872;BME280;43914;57.680;11.982;2023-06-10T03:45:41;101776.18;;;11.30;43.79
54872;BME280;43914;57.680;11.982;2023-06-10T03:48:08;101779.31;;;11.29;44.21
54872;BME280;43914;57.680;11.982;2023-06-10T03:50:34;101779.30;;;11.25;44.26
54872;BME280;43914;57.680;11.982;2023-06-10T03:53:02;101784.39;;;11.26;44.43
54872;BME280;43914;57.680;11.982;2023-06-10T03:55:27;101787.86;;;11.29;44.65
54872;BME280;43914;57.680;11.982;2023-06-10T03:57:53;101785.27;;;11.32;44.77
54872;BME280;43914;57.680;11.982;2023-06-10T04:00:18;101783.47;;;11.33;44.96
54872;BME280;43914;57.680;11.982;2023-06-10T04:02:46;101786.16;;;11.35;45.25
54872;BME280;43914;57.680;11.982;2023-06-10T04:05:15;101786.99;;;11.36;45.49
54872;BME280;43914;57.680;11.982;2023-06-10T04:07:42;101783.61;;;11.37;45.62
54872;BME280;43914;57.680;11.982;2023-06-10T04:10:10;101783.73;;;11.41;45.98
54872;BME280;43914;57.680;11.982;2023-06-10T04:12:36;101783.54;;;11.45;46.00
54872;BME280;43914;57.680;11.982;2023-06-10T04:15:04;101783.46;;;11.47;46.31
54872;BME280;43914;57.680;11.982;2023-06-10T04:17:32;101783.11;;;11.49;46.12
54872;BME280;43914;57.680;11.982;2023-06-10T04:19:57;101784.52;;;11.51;46.25
54872;BME280;43914;57.680;11.982;2023-06-10T04:22:26;101787.13;;;11.55;46.43
54872;BME280;43914;57.680;11.982;2023-06-10T04:24:52;101789.31;;;11.60;46.63
54872;BME280;43914;57.680;11.982;2023-06-10T04:27:18;101791.91;;;11.62;46.43
54872;BME280;43914;57.680;11.982;2023-06-10T04:29:44;101795.15;;;11.64;46.36
54872;BME280;43914;57.680;11.982;2023-06-10T04:32:09;101800.84;;;11.68;46.49
54872;BME280;43914;57.680;11.982;2023-06-10T04:34:35;101799.23;;;11.73;46.84
54872;BME280;43914;57.680;11.982;2023-06-10T04:37:01;101797.86;;;11.75;46.68
54872;BME280;43914;57.680;11.982;2023-06-10T04:39:27;101798.70;;;11.81;46.73
54872;BME280;43914;57.680;11.982;2023-06-10T04:41:52;101804.04;;;11.88;46.74
54872;BME280;43914;57.680;11.982;2023-06-10T04:44:18;101803.58;;;11.93;46.87
54872;BME280;43914;57.680;11.982;2023-06-10T04:46:44;101805.92;;;11.96;46.86
54872;BME280;43914;57.680;11.982;2023-06-10T04:49:10;101807.64;;;11.98;46.52
54872;BME280;43914;57.680;11.982;2023-06-10T04:51:35;101808.39;;;12.01;46.73
54872;BME280;43914;57.680;11.982;2023-06-10T04:54:01;101804.31;;;12.04;46.68
54872;BME280;43914;57.680;11.982;2023-06-10T04:56:30;101808.09;;;12.16;46.54
54872;BME280;43914;57.680;11.982;2023-06-10T04:58:57;101808.35;;;12.25;46.25
54872;BME280;43914;57.680;11.982;2023-06-10T05:01:22;101811.08;;;12.30;45.98
54872;BME280;43914;57.680;11.982;2023-06-10T05:03:48;101808.89;;;12.32;45.78
54872;BME280;43914;57.680;11.982;2023-06-10T05:06:14;101810.14;;;12.35;45.72
54872;BME280;43914;57.680;11.982;2023-06-10T05:08:40;101808.89;;;12.40;45.79
54872;BME280;43914;57.680;11.982;2023-06-10T05:11:06;101810.29;;;12.45;45.59
54872;BME280;43914;57.680;11.982;2023-06-10T05:13:32;101808.97;;;12.49;46.10
54872;BME280;43914;57.680;11.982;2023-06-10T05:15:58;101811.82;;;12.51;45.24
54872;BME280;43914;57.680;11.982;2023-06-10T05:18:23;101812.48;;;12.53;45.38
54872;BME280;43914;57.680;11.982;2023-06-10T05:20:49;101816.21;;;12.57;45.49
54872;BME280;43914;57.680;11.982;2023-06-10T05:23:17;101818.42;;;12.61;45.28
54872;BME280;43914;57.680;11.982;2023-06-10T05:25:46;101808.55;;;12.67;44.94
54872;BME280;43914;57.680;11.982;2023-06-10T05:28:13;101807.39;;;12.70;44.96
54872;BME280;43914;57.680;11.982;2023-06-10T05:30:39;101806.55;;;12.75;45.06
54872;BME280;43914;57.680;11.982;2023-06-10T05:33:05;101802.08;;;12.77;44.21
54872;BME280;43914;57.680;11.982;2023-06-10T05:35:31;101804.52;;;12.78;44.22
54872;BME280;43914;57.680;11.982;2023-06-10T05:37:56;101804.30;;;12.80;44.32
54872;BME280;43914;57.680;11.982;2023-06-10T05:40:22;101803.51;;;12.85;44.66
54872;BME280;43914;57.680;11.982;2023-06-10T05:42:48;101807.76;;;12.92;44.84
54872;BME280;43914;57.680;11.982;2023-06-10T05:45:14;101801.99;;;12.97;45.10
54872;BME280;43914;57.680;11.982;2023-06-10T05:47:40;101804.86;;;13.02;44.52
54872;BME280;43914;57.680;11.982;2023-06-10T05:50:06;101806.23;;;13.06;44.13
54872;BME280;43914;57.680;11.982;2023-06-10T05:52:36;101807.25;;;13.09;44.02
54872;BME280;43914;57.680;11.982;2023-06-10T05:55:03;101808.89;;;13.16;44.12
54872;BME280;43914;57.680;11.982;2023-06-10T05:57:29;101812.92;;;13.22;44.34
54872;BME280;43914;57.680;11.982;2023-06-10T05:59:55;101810.45;;;13.29;44.55
54872;BME280;43914;57.680;11.982;2023-06-10T06:02:20;101804.17;;;13.37;44.89
54872;BME280;43914;57.680;11.982;2023-06-10T06:04:45;101810.45;;;13.42;44.85
54872;BME280;43914;57.680;11.982;2023-06-10T06:07:11;101810.73;;;13.48;44.57
54872;BME280;43914;57.680;11.982;2023-06-10T06:09:36;101809.86;;;13.50;44.13
54872;BME280;43914;57.680;11.982;2023-06-10T06:12:02;101808.86;;;13.54;44.41
54872;BME280;43914;57.680;11.982;2023-06-10T06:14:30;101815.77;;;13.61;44.66
54872;BME280;43914;57.680;11.982;2023-06-10T06:16:57;101819.13;;;13.67;44.72
54872;BME280;43914;57.680;11.982;2023-06-10T06:19:22;101814.91;;;13.73;44.61
54872;BME280;43914;57.680;11.982;2023-06-10T06:21:48;101814.69;;;13.76;44.14
54872;BME280;43914;57.680;11.982;2023-06-10T06:24:16;101811.19;;;13.78;44.18
54872;BME280;43914;57.680;11.982;2023-06-10T06:26:42;101814.15;;;13.84;44.43
54872;BME280;43914;57.680;11.982;2023-06-10T06:29:07;101816.39;;;13.92;44.75
54872;BME280;43914;57.680;11.982;2023-06-10T06:31:33;101818.05;;;13.97;44.24
54872;BME280;43914;57.680;11.982;2023-06-10T06:33:58;101816.31;;;14.02;44.35
54872;BME280;43914;57.680;11.982;2023-06-10T06:36:24;101820.02;;;14.09;44.50
54872;BME280;43914;57.680;11.982;2023-06-10T06:38:49;101818.79;;;14.18;44.59
54872;BME280;43914;57.680;11.982;2023-06-10T06:41:15;101817.03;;;14.25;44.31
54872;BME280;43914;57.680;11.982;2023-06-10T06:43:43;101824.41;;;14.33;44.74
54872;BME280;43914;57.680;11.982;2023-06-10T06:46:09;101824.41;;;14.38;44.58
54872;BME280;43914;57.680;11.982;2023-06-10T06:48:35;101820.30;;;14.45;44.55
54872;BME280;43914;57.680;11.982;2023-06-10T06:51:00;101825.48;;;14.55;44.43
54872;BME280;43914;57.680;11.982;2023-06-10T06:53:26;101825.39;;;14.62;44.40
54872;BME280;43914;57.680;11.982;2023-06-10T06:55:51;101823.11;;;14.67;44.09
54872;BME280;43914;57.680;11.982;2023-06-10T06:58:17;101820.09;;;14.73;43.82
54872;BME280;43914;57.680;11.982;2023-06-10T07:00:42;101827.77;;;14.80;43.81
54872;BME280;43914;57.680;11.982;2023-06-10T07:03:08;101823.48;;;14.84;43.57
54872;BME280;43914;57.680;11.982;2023-06-10T07:05:33;101820.28;;;14.88;43.53
54872;BME280;43914;57.680;11.982;2023-06-10T07:07:59;101822.09;;;14.95;43.56
54872;BME280;43914;57.680;11.982;2023-06-10T07:10:25;101821.49;;;15.01;43.38
54872;BME280;43914;57.680;11.982;2023-06-10T07:12:51;101822.02;;;15.07;43.23
54872;BME280;43914;57.680;11.982;2023-06-10T07:15:17;101816.34;;;15.12;43.41
54872;BME280;43914;57.680;11.982;2023-06-10T07:17:43;101814.02;;;15.19;42.90
54872;BME280;43914;57.680;11.982;2023-06-10T07:20:11;101816.58;;;15.27;42.45
54872;BME280;43914;57.680;11.982;2023-06-10T07:22:37;101816.65;;;15.33;42.45
54872;BME280;43914;57.680;11.982;2023-06-10T07:25:06;101825.48;;;15.41;42.07
54872;BME280;43914;57.680;11.982;2023-06-10T07:27:34;101822.02;;;15.45;41.92
54872;BME280;43914;57.680;11.982;2023-06-10T07:30:10;101822.45;;;15.53;41.61
54872;BME280;43914;57.680;11.982;2023-06-10T07:32:41;101825.21;;;15.59;41.45
54872;BME280;43914;57.680;11.982;2023-06-10T07:35:10;101827.27;;;15.67;41.07
54872;BME280;43914;57.680;11.982;2023-06-10T07:37:36;101820.08;;;15.74;40.33
54872;BME280;43914;57.680;11.982;2023-06-10T07:40:03;101821.61;;;15.81;39.99
54872;BME280;43914;57.680;11.982;2023-06-10T07:42:30;101825.48;;;15.88;40.29
54872;BME280;43914;57.680;11.982;2023-06-10T07:44:56;101825.54;;;15.92;39.65
54872;BME280;43914;57.680;11.982;2023-06-10T07:47:22;101820.48;;;15.97;39.69
54872;BME280;43914;57.680;11.982;2023-06-10T07:49:48;101822.29;;;16.00;38.83
54872;BME280;43914;57.680;11.982;2023-06-10T07:52:13;101814.39;;;16.04;38.82
54872;BME280;43914;57.680;11.982;2023-06-10T07:54:39;101815.77;;;16.16;39.57
54872;BME280;43914;57.680;11.982;2023-06-10T07:57:04;101817.27;;;16.34;40.23
54872;BME280;43914;57.680;11.982;2023-06-10T07:59:33;101821.08;;;16.44;39.44
54872;BME280;43914;57.680;11.982;2023-06-10T08:01:59;101818.97;;;16.48;39.47
54872;BME280;43914;57.680;11.982;2023-06-10T08:04:25;101820.30;;;16.48;39.14
54872;BME280;43914;57.680;11.982;2023-06-10T08:06:50;101816.17;;;16.49;39.54
54872;BME280;43914;57.680;11.982;2023-06-10T08:09:19;101817.05;;;16.55;39.67
54872;BME280;43914;57.680;11.982;2023-06-10T08:11:47;101820.63;;;16.64;39.67
54872;BME280;43914;57.680;11.982;2023-06-10T08:14:12;101821.67;;;16.71;39.05
54872;BME280;43914;57.680;11.982;2023-06-10T08:16:38;101818.02;;;16.74;38.25
54872;BME280;43914;57.680;11.982;2023-06-10T08:19:06;101815.81;;;16.76;38.07
54872;BME280;43914;57.680;11.982;2023-06-10T08:21:34;101815.98;;;16.77;38.12
54872;BME280;43914;57.680;11.982;2023-06-10T08:24:02;101816.50;;;16.86;38.23
54872;BME280;43914;57.680;11.982;2023-06-10T08:26:28;101810.16;;;16.93;37.42
54872;BME280;43914;57.680;11.982;2023-06-10T08:28:54;101809.17;;;17.01;36.80
54872;BME280;43914;57.680;11.982;2023-06-10T08:31:21;101806.00;;;17.07;36.89
54872;BME280;43914;57.680;11.982;2023-06-10T08:33:46;101805.66;;;17.10;37.41
54872;BME280;43914;57.680;11.982;2023-06-10T08:36:12;101811.40;;;17.10;37.66
54872;BME280;43914;57.680;11.982;2023-06-10T08:38:37;101810.44;;;17.11;37.97
54872;BME280;43914;57.680;11.982;2023-06-10T08:41:05;101811.09;;;17.15;37.54
54872;BME280;43914;57.680;11.982;2023-06-10T08:43:37;101813.95;;;17.24;37.49
54872;BME280;43914;57.680;11.982;2023-06-10T08:46:08;101808.48;;;17.33;36.58
54872;BME280;43914;57.680;11.982;2023-06-10T08:48:35;101811.01;;;17.37;36.44
54872;BME280;43914;57.680;11.982;2023-06-10T08:51:04;101810.79;;;17.35;35.79
54872;BME280;43914;57.680;11.982;2023-06-10T08:53:31;101808.17;;;17.35;35.70
54872;BME280;43914;57.680;11.982;2023-06-10T08:56:02;101807.95;;;17.36;36.14
54872;BME280;43914;57.680;11.982;2023-06-10T08:58:29;101806.57;;;17.34;35.58
54872;BME280;43914;57.680;11.982;2023-06-10T09:00:58;101805.04;;;17.31;35.81
54872;BME280;43914;57.680;11.982;2023-06-10T09:03:25;101801.02;;;17.35;35.58
54872;BME280;43914;57.680;11.982;2023-06-10T09:05:51;101805.02;;;17.36;35.17
54872;BME280;43914;57.680;11.982;2023-06-10T09:08:17;101800.61;;;17.39;35.32
54872;BME280;43914;57.680;11.982;2023-06-10T09:10:42;101801.95;;;17.45;35.28
54872;BME280;43914;57.680;11.982;2023-06-10T09:13:08;101795.79;;;17.51;35.43
54872;BME280;43914;57.680;11.982;2023-06-10T09:15:33;101793.05;;;17.58;34.69
54872;BME280;43914;57.680;11.982;2023-06-10T09:17:59;101789.45;;;17.60;33.79
54872;BME280;43914;57.680;11.982;2023-06-10T09:20:25;101788.21;;;17.67;34.08
54872;BME280;43914;57.680;11.982;2023-06-10T09:22:51;101786.81;;;17.73;34.29
54872;BME280;43914;57.680;11.982;2023-06-10T09:25:17;101782.09;;;17.80;34.38
54872;BME280;43914;57.680;11.982;2023-06-10T09:27:50;101778.79;;;17.90;34.40
54872;BME280;43914;57.680;11.982;2023-06-10T09:32:58;101777.20;;;18.03;34.36
54872;BME280;43914;57.680;11.982;2023-06-10T09:35:24;101776.07;;;18.13;33.68
54872;BME280;43914;57.680;11.982;2023-06-10T09:37:55;101772.92;;;18.20;32.56
54872;BME280;43914;57.680;11.982;2023-06-10T09:40:21;101779.02;;;18.25;32.76
54872;BME280;43914;57.680;11.982;2023-06-10T09:42:54;101780.16;;;18.34;32.65
54872;BME280;43914;57.680;11.982;2023-06-10T09:45:21;101777.14;;;18.41;31.72
54872;BME280;43914;57.680;11.982;2023-06-10T09:47:51;101768.54;;;18.49;32.23
54872;BME280;43914;57.680;11.982;2023-06-10T09:50:17;101772.00;;;18.58;31.92
54872;BME280;43914;57.680;11.982;2023-06-10T09:52:42;101767.92;;;18.65;31.85
54872;BME280;43914;57.680;11.982;2023-06-10T09:55:09;101768.82;;;18.74;32.25
54872;BME280;43914;57.680;11.982;2023-06-10T09:57:36;101768.78;;;18.86;31.94
54872;BME280;43914;57.680;11.982;2023-06-10T10:00:05;101766.33;;;18.94;30.83
54872;BME280;43914;57.680;11.982;2023-06-10T10:02:31;101764.02;;;19.00;30.95
54872;BME280;43914;57.680;11.982;2023-06-10T10:05:03;101762.26;;;19.04;30.76
54872;BME280;43914;57.680;11.982;2023-06-10T10:07:31;101765.23;;;19.11;31.14
54872;BME280;43914;57.680;11.982;2023-06-10T10:09:57;101763.16;;;19.15;31.12
54872;BME280;43914;57.680;11.982;2023-06-10T10:12:23;101759.45;;;19.17;31.38
54872;BME280;43914;57.680;11.982;2023-06-10T10:14:50;101762.14;;;19.19;30.40
54872;BME280;43914;57.680;11.982;2023-06-10T10:17:16;101764.20;;;19.18;30.02
54872;BME280;43914;57.680;11.982;2023-06-10T10:19:50;101763.08;;;19.24;30.17
54872;BME280;43914;57.680;11.982;2023-06-10T10:22:22;101764.73;;;19.35;30.70
54872;BME280;43914;57.680;11.982;2023-06-10T10:24:52;101758.41;;;19.48;30.75
54872;BME280;43914;57.680;11.982;2023-06-10T10:27:25;101762.99;;;19.67;30.73
54872;BME280;43914;57.680;11.982;2023-06-10T10:29:54;101762.36;;;19.79;30.44
54872;BME280;43914;57.680;11.982;2023-06-10T10:32:30;101760.10;;;19.83;29.10
54872;BME280;43914;57.680;11.982;2023-06-10T10:35:24;101760.13;;;19.78;28.95
54872;BME280;43914;57.680;11.982;2023-06-10T10:37:54;101758.82;;;19.74;29.23
54872;BME280;43914;57.680;11.982;2023-06-10T10:40:21;101758.21;;;19.79;29.66
54872;BME280;43914;57.680;11.982;2023-06-10T10:42:48;101760.21;;;19.95;29.57
54872;BME280;43914;57.680;11.982;2023-06-10T10:45:14;101754.77;;;20.04;29.01
54872;BME280;43914;57.680;11.982;2023-06-10T10:47:41;101756.13;;;20.15;28.71
54872;BME280;43914;57.680;11.982;2023-06-10T10:50:28;101749.52;;;20.22;28.61
54872;BME280;43914;57.680;11.982;2023-06-10T10:53:02;101749.54;;;20.33;28.71
54872;BME280;43914;57.680;11.982;2023-06-10T10:55:28;101754.72;;;20.40;28.37
54872;BME280;43914;57.680;11.982;2023-06-10T10:58:07;101745.89;;;20.49;28.27
54872;BME280;43914;57.680;11.982;2023-06-10T11:00:43;101745.75;;;20.65;27.84
54872;BME280;43914;57.680;11.982;2023-06-10T11:03:14;101741.02;;;20.75;28.14
54872;BME280;43914;57.680;11.982;2023-06-10T11:05:43;101745.23;;;20.91;29.06
54872;BME280;43914;57.680;11.982;2023-06-10T11:08:10;101742.16;;;21.12;28.70
54872;BME280;43914;57.680;11.982;2023-06-10T11:10:38;101739.14;;;21.29;28.35
54872;BME280;43914;57.680;11.982;2023-06-10T11:13:08;101738.36;;;21.45;28.41
54872;BME280;43914;57.680;11.982;2023-06-10T11:15:39;101735.05;;;21.61;28.42
54872;BME280;43914;57.680;11.982;2023-06-10T11:18:27;101729.67;;;21.76;27.51
54872;BME280;43914;57.680;11.982;2023-06-10T11:20:53;101734.10;;;21.83;27.46
54872;BME280;43914;57.680;11.982;2023-06-10T11:28:41;101729.71;;;22.27;26.93
54872;BME280;43914;57.680;11.982;2023-06-10T11:31:07;101732.60;;;22.42;26.63
54872;BME280;43914;57.680;11.982;2023-06-10T11:33:32;101732.48;;;22.51;26.44
54872;BME280;43914;57.680;11.982;2023-06-10T11:35:58;101731.64;;;22.51;25.14
54872;BME280;43914;57.680;11.982;2023-06-10T11:38:24;101729.74;;;22.52;25.73
54872;BME280;43914;57.680;11.982;2023-06-10T11:40:51;101730.51;;;22.58;26.70
54872;BME280;43914;57.680;11.982;2023-06-10T11:43:17;101720.86;;;22.68;27.48
54872;BME280;43914;57.680;11.982;2023-06-10T11:45:43;101718.77;;;22.82;26.76
54872;BME280;43914;57.680;11.982;2023-06-10T11:48:09;101721.66;;;22.89;26.95
54872;BME280;43914;57.680;11.982;2023-06-10T11:50:36;101720.70;;;22.95;26.35
54872;BME280;43914;57.680;11.982;2023-06-10T11:53:02;101712.90;;;23.06;26.18
54872;BME280;43914;57.680;11.982;2023-06-10T11:58:13;101710.37;;;23.17;24.89
54872;BME280;43914;57.680;11.982;2023-06-10T12:00:49;101710.30;;;23.27;25.38
54872;BME280;43914;57.680;11.982;2023-06-10T12:03:16;101709.50;;;23.41;24.57
54872;BME280;43914;57.680;11.982;2023-06-10T12:05:59;101706.58;;;23.37;24.28
54872;BME280;43914;57.680;11.982;2023-06-10T12:08:25;101706.70;;;23.31;24.02
54872;BME280;43914;57.680;11.982;2023-06-10T12:10:51;101698.09;;;23.31;24.73
54872;BME280;43914;57.680;11.982;2023-06-10T12:13:19;101696.36;;;23.49;25.12
54872;BME280;43914;57.680;11.982;2023-06-10T12:15:46;101699.19;;;23.74;24.52
54872;BME280;43914;57.680;11.982;2023-06-10T12:18:19;101699.34;;;23.88;23.59
54872;BME280;43914;57.680;11.982;2023-06-10T12:20:45;101693.17;;;24.00;24.15
54872;BME280;43914;57.680;11.982;2023-06-10T12:23:13;101695.23;;;24.16;24.12
54872;BME280;43914;57.680;11.982;2023-06-10T12:25:39;101696.77;;;24.29;24.10
54872;BME280;43914;57.680;11.982;2023-06-10T12:28:05;101691.33;;;24.42;23.96
54872;BME280;43914;57.680;11.982;2023-06-10T12:30:34;101697.22;;;24.55;24.06
54872;BME280;43914;57.680;11.982;2023-06-10T12:32:59;101700.73;;;24.80;23.47
54872;BME280;43914;57.680;11.982;2023-06-10T12:35:28;101689.88;;;25.08;23.32
54872;BME280;43914;57.680;11.982;2023-06-10T12:38:04;101687.03;;;25.22;23.34
54872;BME280;43914;57.680;11.982;2023-06-10T12:40:37;101686.82;;;25.34;23.11
54872;BME280;43914;57.680;11.982;2023-06-10T12:43:04;101680.95;;;25.47;22.90
54872;BME280;43914;57.680;11.982;2023-06-10T12:45:38;101682.92;;;25.66;22.93
54872;BME280;43914;57.680;11.982;2023-06-10T12:48:19;101683.17;;;25.85;22.69
54872;BME280;43914;57.680;11.982;2023-06-10T12:50:54;101679.06;;;26.05;22.03
54872;BME280;43914;57.680;11.982;2023-06-10T12:53:20;101673.35;;;26.28;21.13
54872;BME280;43914;57.680;11.982;2023-06-10T12:55:47;101674.71;;;26.47;20.99